Birch 4 — VREG7 — position and weather

sailwx.info

Track history (hours):
 
Tides and Currents Weather Stations Pressure Air Temp Water Temp Dewpoint Dewpoint Depression Visibility Wind Speed Wind Dir Waves Ship Positions

Birch 4

Last reported at 2015-Jan-26 02:23 UTC. Time now 2015-Feb-01 16:40 UTC.
Position N 35°48' E 028°17'.

Length 160 m; draft 7.9 m.

Type: Ship. MMSI: 477111100.

Date/timePositionNaut miles runAvg speedWind from/ knotsBaromVisibWave heightAir tempDewpointWater temp
2015-Jan-26 02:23N 35°48' E 028°17'68 9.7
2015-Jan-25 19:21N 36°18' E 027°01'2310.8
2015-Jan-25 17:14N 36°34' E 026°42'5510.9
2015-Jan-25 12:13N 37°13' E 025°53'811.6
2015-Jan-25 11:33N 37°20' E 025°50'1111.3
2015-Jan-25 10:33N 37°31' E 025°47'1110.8
2015-Jan-25 09:32N 37°41' E 025°43'1110.9
2015-Jan-25 08:33N 37°52' E 025°39'154 9.6
2015-Jan-24 16:31N 40°19' E 026°36'1410.1
2015-Jan-24 15:07N 40°28' E 026°50'112 4.5
2015-Jan-23 14:10N 41°17' E 029°02'4 0.1
2015-Jan-21 13:04N 41°19' E 029°06'11 1.3
2015-Jan-21 05:09N 41°23' E 029°20'710.9
2015-Jan-21 04:34N 41°26' E 029°28'34911.1
2015-Jan-19 21:05N 43°25' E 036°52'8711.5
2015-Jan-19 13:28N 43°55' E 038°45'1111.6
2015-Jan-19 12:34N 43°59' E 038°59'7 7.0
2015-Jan-19 11:34N 44°05' E 039°04'0 0.2
2015-Jan-19 10:32N 44°06' E 039°04'0 0.0
2015-Jan-19 09:32N 44°06' E 039°04'0 0.0
2015-Jan-19 08:32N 44°06' E 039°04'0 0.0
2015-Jan-19 07:32N 44°06' E 039°04'0 0.0
2015-Jan-19 06:32N 44°06' E 039°04'0 0.0
2015-Jan-19 05:32N 44°06' E 039°04'0 0.0
2015-Jan-19 04:32N 44°06' E 039°04'0 0.0
2015-Jan-19 03:32N 44°06' E 039°04'0 0.0
2015-Jan-19 02:32N 44°06' E 039°04'0 0.0
2015-Jan-19 01:32N 44°06' E 039°04'0 0.0
2015-Jan-19 00:32N 44°06' E 039°04'0 0.0
2015-Jan-18 23:32N 44°06' E 039°04'0 0.0
2015-Jan-18 22:32N 44°06' E 039°04'0 0.0
2015-Jan-18 21:32N 44°06' E 039°04'0 0.0
2015-Jan-18 20:32N 44°06' E 039°04'0 0.0
2015-Jan-18 19:32N 44°06' E 039°04'0 0.0
2015-Jan-18 18:32N 44°06' E 039°04'0 0.0
2015-Jan-18 17:32N 44°06' E 039°04'0 0.0
2015-Jan-18 16:32N 44°06' E 039°04'0 0.0
2015-Jan-18 15:32N 44°06' E 039°04'0 0.0
2015-Jan-18 14:32N 44°06' E 039°04'0 0.0
2015-Jan-18 13:32N 44°06' E 039°04'0 0.0
2015-Jan-18 12:32N 44°06' E 039°04'0 0.0
2015-Jan-18 11:29N 44°06' E 039°04'0 0.0
2015-Jan-18 10:32N 44°06' E 039°04'0 0.0
2015-Jan-18 09:32N 44°06' E 039°04'0 0.0
2015-Jan-18 08:32N 44°06' E 039°04'0 0.0
2015-Jan-18 07:32N 44°06' E 039°04'0 0.0
2015-Jan-18 06:32N 44°06' E 039°04'0 0.0
2015-Jan-18 05:32N 44°06' E 039°04'0 0.0
2015-Jan-18 04:32N 44°06' E 039°04'0 0.0
2015-Jan-18 03:32N 44°06' E 039°04'0 0.0
2015-Jan-18 02:26N 44°06' E 039°04'0 0.0
2015-Jan-18 01:32N 44°06' E 039°04'0 0.0
2015-Jan-18 00:32N 44°06' E 039°04'0 0.0
2015-Jan-17 23:32N 44°06' E 039°04'0 0.0
2015-Jan-17 22:32N 44°06' E 039°04'0 0.0
2015-Jan-17 21:32N 44°06' E 039°04'0 0.0
2015-Jan-17 20:32N 44°06' E 039°04'0 0.0
2015-Jan-17 19:32N 44°06' E 039°04'0 0.0
2015-Jan-17 18:32N 44°06' E 039°04'0 0.0
2015-Jan-17 17:32N 44°06' E 039°04'0 0.0
2015-Jan-17 16:32N 44°06' E 039°04'0 0.0
2015-Jan-17 15:32N 44°06' E 039°04'0 0.0
2015-Jan-17 14:32N 44°06' E 039°04'0 0.0
2015-Jan-17 13:32N 44°06' E 039°04'0 0.0
2015-Jan-17 12:32N 44°06' E 039°04'0 0.0
2015-Jan-17 11:32N 44°06' E 039°04'0 0.0
2015-Jan-17 10:32N 44°06' E 039°04'0 0.0
2015-Jan-17 09:32N 44°06' E 039°04'0 0.0
2015-Jan-17 08:32N 44°06' E 039°04'0 0.0
2015-Jan-17 07:32N 44°06' E 039°04'0 0.0
2015-Jan-17 06:32N 44°06' E 039°04'0 0.0
2015-Jan-17 05:32N 44°06' E 039°04'0 0.0
2015-Jan-17 04:29N 44°06' E 039°04'0 0.0
2015-Jan-17 03:32N 44°06' E 039°04'0 0.0
2015-Jan-17 02:32N 44°06' E 039°04'0 0.0
2015-Jan-17 01:32N 44°06' E 039°04'0 0.0
2015-Jan-17 00:32N 44°06' E 039°04'0 0.0
2015-Jan-16 23:32N 44°06' E 039°04'0 0.0
2015-Jan-16 22:32N 44°06' E 039°04'0 0.0
2015-Jan-16 21:32N 44°06' E 039°04'0 0.0
2015-Jan-16 20:32N 44°06' E 039°04'0 0.0
2015-Jan-16 19:32N 44°06' E 039°04'0 0.0
2015-Jan-16 18:32N 44°06' E 039°04'0 0.0
2015-Jan-16 17:32N 44°06' E 039°04'0 0.0
2015-Jan-16 16:32N 44°06' E 039°04'0 0.0
2015-Jan-16 15:32N 44°06' E 039°04'0 0.0
2015-Jan-16 14:32N 44°06' E 039°04'0 0.0
2015-Jan-16 13:32N 44°06' E 039°04'0 0.0
2015-Jan-16 12:32N 44°06' E 039°04'0 0.0
2015-Jan-16 11:32N 44°06' E 039°04'0 0.0
2015-Jan-16 10:32N 44°06' E 039°04'0 0.0
2015-Jan-16 09:26N 44°06' E 039°04'0 0.0
2015-Jan-16 08:32N 44°06' E 039°04'0 0.0
2015-Jan-16 07:32N 44°06' E 039°04'0 0.0
2015-Jan-16 06:32N 44°06' E 039°04'0 0.0
2015-Jan-16 05:32N 44°06' E 039°04'0 0.0
2015-Jan-16 04:32N 44°06' E 039°04'0 0.0
2015-Jan-16 03:32N 44°06' E 039°04'0 0.0
2015-Jan-16 02:32N 44°06' E 039°04'  
Track history (hours):
 
Tides and Currents Weather Stations Pressure Air Temp Water Temp Dewpoint Dewpoint Depression Visibility Wind Speed Wind Dir Waves Ship Positions

Birch 4

Last reported at 2015-Jan-26 02:23 UTC. Time now 2015-Feb-01 16:40 UTC.
Position N 35°48' E 028°17'.

Length 160 m; draft 7.9 m.

Type: Ship. MMSI: 477111100.

Date/timePositionNaut miles runAvg speedWind from/ knotsBaromVisibWave heightAir tempDewpointWater temp
2015-Jan-26 02:23N 35°48' E 028°17'68 9.7
2015-Jan-25 19:21N 36°18' E 027°01'2310.8
2015-Jan-25 17:14N 36°34' E 026°42'5510.9
2015-Jan-25 12:13N 37°13' E 025°53'811.6
2015-Jan-25 11:33N 37°20' E 025°50'1111.3
2015-Jan-25 10:33N 37°31' E 025°47'1110.8
2015-Jan-25 09:32N 37°41' E 025°43'1110.9
2015-Jan-25 08:33N 37°52' E 025°39'154 9.6
2015-Jan-24 16:31N 40°19' E 026°36'1410.1
2015-Jan-24 15:07N 40°28' E 026°50'112 4.5
2015-Jan-23 14:10N 41°17' E 029°02'4 0.1
2015-Jan-21 13:04N 41°19' E 029°06'11 1.3
2015-Jan-21 05:09N 41°23' E 029°20'710.9
2015-Jan-21 04:34N 41°26' E 029°28'34911.1
2015-Jan-19 21:05N 43°25' E 036°52'8711.5
2015-Jan-19 13:28N 43°55' E 038°45'1111.6
2015-Jan-19 12:34N 43°59' E 038°59'7 7.0
2015-Jan-19 11:34N 44°05' E 039°04'0 0.2
2015-Jan-19 10:32N 44°06' E 039°04'0 0.0
2015-Jan-19 09:32N 44°06' E 039°04'0 0.0
2015-Jan-19 08:32N 44°06' E 039°04'0 0.0
2015-Jan-19 07:32N 44°06' E 039°04'0 0.0
2015-Jan-19 06:32N 44°06' E 039°04'0 0.0
2015-Jan-19 05:32N 44°06' E 039°04'0 0.0
2015-Jan-19 04:32N 44°06' E 039°04'0 0.0
2015-Jan-19 03:32N 44°06' E 039°04'0 0.0
2015-Jan-19 02:32N 44°06' E 039°04'0 0.0
2015-Jan-19 01:32N 44°06' E 039°04'0 0.0
2015-Jan-19 00:32N 44°06' E 039°04'0 0.0
2015-Jan-18 23:32N 44°06' E 039°04'0 0.0
2015-Jan-18 22:32N 44°06' E 039°04'0 0.0
2015-Jan-18 21:32N 44°06' E 039°04'0 0.0
2015-Jan-18 20:32N 44°06' E 039°04'0 0.0
2015-Jan-18 19:32N 44°06' E 039°04'0 0.0
2015-Jan-18 18:32N 44°06' E 039°04'0 0.0
2015-Jan-18 17:32N 44°06' E 039°04'0 0.0
2015-Jan-18 16:32N 44°06' E 039°04'0 0.0
2015-Jan-18 15:32N 44°06' E 039°04'0 0.0
2015-Jan-18 14:32N 44°06' E 039°04'0 0.0
2015-Jan-18 13:32N 44°06' E 039°04'0 0.0
2015-Jan-18 12:32N 44°06' E 039°04'0 0.0
2015-Jan-18 11:29N 44°06' E 039°04'0 0.0
2015-Jan-18 10:32N 44°06' E 039°04'0 0.0
2015-Jan-18 09:32N 44°06' E 039°04'0 0.0
2015-Jan-18 08:32N 44°06' E 039°04'0 0.0
2015-Jan-18 07:32N 44°06' E 039°04'0 0.0
2015-Jan-18 06:32N 44°06' E 039°04'0 0.0
2015-Jan-18 05:32N 44°06' E 039°04'0 0.0
2015-Jan-18 04:32N 44°06' E 039°04'0 0.0
2015-Jan-18 03:32N 44°06' E 039°04'0 0.0
2015-Jan-18 02:26N 44°06' E 039°04'0 0.0
2015-Jan-18 01:32N 44°06' E 039°04'0 0.0
2015-Jan-18 00:32N 44°06' E 039°04'0 0.0
2015-Jan-17 23:32N 44°06' E 039°04'0 0.0
2015-Jan-17 22:32N 44°06' E 039°04'0 0.0
2015-Jan-17 21:32N 44°06' E 039°04'0 0.0
2015-Jan-17 20:32N 44°06' E 039°04'0 0.0
2015-Jan-17 19:32N 44°06' E 039°04'0 0.0
2015-Jan-17 18:32N 44°06' E 039°04'0 0.0
2015-Jan-17 17:32N 44°06' E 039°04'0 0.0
2015-Jan-17 16:32N 44°06' E 039°04'0 0.0
2015-Jan-17 15:32N 44°06' E 039°04'0 0.0
2015-Jan-17 14:32N 44°06' E 039°04'0 0.0
2015-Jan-17 13:32N 44°06' E 039°04'0 0.0
2015-Jan-17 12:32N 44°06' E 039°04'0 0.0
2015-Jan-17 11:32N 44°06' E 039°04'0 0.0
2015-Jan-17 10:32N 44°06' E 039°04'0 0.0
2015-Jan-17 09:32N 44°06' E 039°04'0 0.0
2015-Jan-17 08:32N 44°06' E 039°04'0 0.0
2015-Jan-17 07:32N 44°06' E 039°04'0 0.0
2015-Jan-17 06:32N 44°06' E 039°04'0 0.0
2015-Jan-17 05:32N 44°06' E 039°04'0 0.0
2015-Jan-17 04:29N 44°06' E 039°04'0 0.0
2015-Jan-17 03:32N 44°06' E 039°04'0 0.0
2015-Jan-17 02:32N 44°06' E 039°04'0 0.0
2015-Jan-17 01:32N 44°06' E 039°04'0 0.0
2015-Jan-17 00:32N 44°06' E 039°04'0 0.0
2015-Jan-16 23:32N 44°06' E 039°04'0 0.0
2015-Jan-16 22:32N 44°06' E 039°04'0 0.0
2015-Jan-16 21:32N 44°06' E 039°04'0 0.0
2015-Jan-16 20:32N 44°06' E 039°04'0 0.0
2015-Jan-16 19:32N 44°06' E 039°04'0 0.0
2015-Jan-16 18:32N 44°06' E 039°04'0 0.0
2015-Jan-16 17:32N 44°06' E 039°04'0 0.0
2015-Jan-16 16:32N 44°06' E 039°04'0 0.0
2015-Jan-16 15:32N 44°06' E 039°04'0 0.0
2015-Jan-16 14:32N 44°06' E 039°04'0 0.0
2015-Jan-16 13:32N 44°06' E 039°04'0 0.0
2015-Jan-16 12:32N 44°06' E 039°04'0 0.0
2015-Jan-16 11:32N 44°06' E 039°04'0 0.0
2015-Jan-16 10:32N 44°06' E 039°04'0 0.0
2015-Jan-16 09:26N 44°06' E 039°04'0 0.0
2015-Jan-16 08:32N 44°06' E 039°04'0 0.0
2015-Jan-16 07:32N 44°06' E 039°04'0 0.0
2015-Jan-16 06:32N 44°06' E 039°04'0 0.0
2015-Jan-16 05:32N 44°06' E 039°04'0 0.0
2015-Jan-16 04:32N 44°06' E 039°04'0 0.0
2015-Jan-16 03:32N 44°06' E 039°04'0 0.0
2015-Jan-16 02:32N 44°06' E 039°04'  

Dump ship's entire track history